sensor_id;sensor_type;location;lat;lon;timestamp;pressure;altitude;pressure_sealevel;temperature;humidity
48402;BME280;34201;52.438;16.744;2022-08-03T00:01:17;100718.31;;;17.85;95.65
48402;BME280;34201;52.438;16.744;2022-08-03T00:03:43;100700.53;;;17.74;95.24
48402;BME280;34201;52.438;16.744;2022-08-03T00:06:08;100710.53;;;17.83;95.57
48402;BME280;34201;52.438;16.744;2022-08-03T00:08:34;100695.25;;;17.75;94.93
48402;BME280;34201;52.438;16.744;2022-08-03T00:10:59;100713.31;;;17.80;95.55
48402;BME280;34201;52.438;16.744;2022-08-03T00:13:25;100698.25;;;17.68;95.94
48402;BME280;34201;52.438;16.744;2022-08-03T00:15:50;100712.09;;;17.70;96.18
48402;BME280;34201;52.438;16.744;2022-08-03T00:18:16;100722.59;;;17.68;96.67
48402;BME280;34201;52.438;16.744;2022-08-03T00:20:41;100706.31;;;17.63;96.65
48402;BME280;34201;52.438;16.744;2022-08-03T00:23:07;100702.25;;;17.57;96.56
48402;BME280;34201;52.438;16.744;2022-08-03T00:25:34;100721.84;;;17.66;96.51
48402;BME280;34201;52.438;16.744;2022-08-03T00:28:00;100704.69;;;17.60;96.04
48402;BME280;34201;52.438;16.744;2022-08-03T00:30:26;100708.31;;;17.58;96.57
48402;BME280;34201;52.438;16.744;2022-08-03T00:32:51;100710.31;;;17.53;96.88
48402;BME280;34201;52.438;16.744;2022-08-03T00:35:18;100708.47;;;17.55;97.25
48402;BME280;34201;52.438;16.744;2022-08-03T00:37:43;100709.72;;;17.48;97.26
48402;BME280;34201;52.438;16.744;2022-08-03T00:40:14;100728.06;;;17.64;97.40
48402;BME280;34201;52.438;16.744;2022-08-03T00:42:50;100724.91;;;17.57;97.01
48402;BME280;34201;52.438;16.744;2022-08-03T00:45:17;100724.16;;;17.55;97.46
48402;BME280;34201;52.438;16.744;2022-08-03T00:47:44;100717.31;;;17.52;97.99
48402;BME280;34201;52.438;16.744;2022-08-03T00:50:09;100712.16;;;17.51;97.83
48402;BME280;34201;52.438;16.744;2022-08-03T00:52:35;100711.31;;;17.50;97.79
48402;BME280;34201;52.438;16.744;2022-08-03T00:55:02;100710.94;;;17.58;97.62
48402;BME280;34201;52.438;16.744;2022-08-03T00:57:29;100717.69;;;17.62;97.68
48402;BME280;34201;52.438;16.744;2022-08-03T00:59:54;100703.72;;;17.63;97.49
48402;BME280;34201;52.438;16.744;2022-08-03T01:02:20;100703.25;;;17.55;97.36
48402;BME280;34201;52.438;16.744;2022-08-03T01:04:45;100713.09;;;17.67;97.50
48402;BME280;34201;52.438;16.744;2022-08-03T01:07:17;100715.09;;;17.62;98.21
48402;BME280;34201;52.438;16.744;2022-08-03T01:09:55;100715.91;;;17.62;98.25
48402;BME280;34201;52.438;16.744;2022-08-03T01:15:14;100698.88;;;17.73;97.51
48402;BME280;34201;52.438;16.744;2022-08-03T01:17:54;100698.16;;;17.69;97.49
48402;BME280;34201;52.438;16.744;2022-08-03T01:20:23;100701.56;;;17.71;97.96
48402;BME280;34201;52.438;16.744;2022-08-03T01:28:55;100663.69;;;17.78;96.42
48402;BME280;34201;52.438;16.744;2022-08-03T01:31:26;100679.06;;;17.85;96.36
48402;BME280;34201;52.438;16.744;2022-08-03T01:34:00;100677.97;;;17.89;96.14
48402;BME280;34201;52.438;16.744;2022-08-03T01:36:35;100665.47;;;17.95;95.64
48402;BME280;34201;52.438;16.744;2022-08-03T01:39:04;100659.16;;;18.00;95.23
48402;BME280;34201;52.438;16.744;2022-08-03T01:41:38;100660.22;;;17.95;95.42
48402;BME280;34201;52.438;16.744;2022-08-03T01:44:07;100668.09;;;17.95;95.45
48402;BME280;34201;52.438;16.744;2022-08-03T01:46:34;100666.00;;;18.02;95.49
48402;BME280;34201;52.438;16.744;2022-08-03T01:49:02;100659.16;;;18.00;94.82
48402;BME280;34201;52.438;16.744;2022-08-03T01:51:27;100656.28;;;18.04;94.62
48402;BME280;34201;52.438;16.744;2022-08-03T01:53:53;100652.66;;;18.07;94.57
48402;BME280;34201;52.438;16.744;2022-08-03T01:56:21;100661.06;;;17.96;95.36
48402;BME280;34201;52.438;16.744;2022-08-03T01:58:49;100674.41;;;17.91;96.12
48402;BME280;34201;52.438;16.744;2022-08-03T02:01:16;100672.47;;;17.77;96.65
48402;BME280;34201;52.438;16.744;2022-08-03T02:03:43;100680.06;;;17.82;97.76
48402;BME280;34201;52.438;16.744;2022-08-03T02:06:11;100681.22;;;17.76;97.96
48402;BME280;34201;52.438;16.744;2022-08-03T02:08:41;100676.00;;;17.76;97.65
48402;BME280;34201;52.438;16.744;2022-08-03T02:11:07;100667.38;;;17.92;96.54
48402;BME280;34201;52.438;16.744;2022-08-03T02:13:33;100652.47;;;17.94;95.72
48402;BME280;34201;52.438;16.744;2022-08-03T02:16:02;100645.06;;;18.02;95.02
48402;BME280;34201;52.438;16.744;2022-08-03T02:18:30;100633.50;;;18.06;94.88
48402;BME280;34201;52.438;16.744;2022-08-03T02:20:56;100623.28;;;18.02;94.25
48402;BME280;34201;52.438;16.744;2022-08-03T02:23:22;100630.19;;;18.03;94.37
48402;BME280;34201;52.438;16.744;2022-08-03T02:25:52;100638.38;;;17.97;94.80
48402;BME280;34201;52.438;16.744;2022-08-03T02:28:27;100636.28;;;18.03;94.80
48402;BME280;34201;52.438;16.744;2022-08-03T02:30:54;100629.84;;;17.93;94.89
48402;BME280;34201;52.438;16.744;2022-08-03T02:33:29;100653.69;;;17.87;96.77
48402;BME280;34201;52.438;16.744;2022-08-03T02:35:57;100665.63;;;17.92;96.79
48402;BME280;34201;52.438;16.744;2022-08-03T02:38:27;100662.84;;;17.78;97.99
48402;BME280;34201;52.438;16.744;2022-08-03T02:40:56;100668.06;;;17.78;98.00
48402;BME280;34201;52.438;16.744;2022-08-03T02:43:23;100667.53;;;17.89;98.08
48402;BME280;34201;52.438;16.744;2022-08-03T02:45:50;100666.78;;;17.87;97.86
48402;BME280;34201;52.438;16.744;2022-08-03T02:48:19;100658.38;;;17.80;97.81
48402;BME280;34201;52.438;16.744;2022-08-03T02:50:47;100674.53;;;17.88;98.25
48402;BME280;34201;52.438;16.744;2022-08-03T02:53:15;100661.00;;;17.80;98.37
48402;BME280;34201;52.438;16.744;2022-08-03T02:55:42;100673.66;;;17.88;98.23
48402;BME280;34201;52.438;16.744;2022-08-03T02:58:10;100674.44;;;17.90;98.19
48402;BME280;34201;52.438;16.744;2022-08-03T03:00:37;100672.13;;;17.84;98.42
48402;BME280;34201;52.438;16.744;2022-08-03T03:03:04;100670.31;;;17.86;98.29
48402;BME280;34201;52.438;16.744;2022-08-03T03:05:30;100659.66;;;17.89;97.03
48402;BME280;34201;52.438;16.744;2022-08-03T03:07:56;100649.28;;;17.87;97.00
48402;BME280;34201;52.438;16.744;2022-08-03T03:10:23;100651.91;;;17.87;97.03
48402;BME280;34201;52.438;16.744;2022-08-03T03:12:52;100658.75;;;17.90;97.19
48402;BME280;34201;52.438;16.744;2022-08-03T03:15:19;100662.78;;;17.97;96.42
48402;BME280;34201;52.438;16.744;2022-08-03T03:17:46;100648.25;;;17.91;96.18
48402;BME280;34201;52.438;16.744;2022-08-03T03:20:11;100641.22;;;17.92;95.74
48402;BME280;34201;52.438;16.744;2022-08-03T03:22:37;100628.94;;;17.94;95.31
48402;BME280;34201;52.438;16.744;2022-08-03T03:25:05;100629.38;;;18.02;94.79
48402;BME280;34201;52.438;16.744;2022-08-03T03:27:31;100619.75;;;18.03;94.52
48402;BME280;34201;52.438;16.744;2022-08-03T03:29:58;100609.63;;;17.97;94.26
48402;BME280;34201;52.438;16.744;2022-08-03T03:32:26;100628.38;;;18.05;94.48
48402;BME280;34201;52.438;16.744;2022-08-03T03:34:52;100640.66;;;18.03;94.45
48402;BME280;34201;52.438;16.744;2022-08-03T03:37:18;100639.22;;;17.97;94.98
48402;BME280;34201;52.438;16.744;2022-08-03T03:39:44;100660.91;;;17.99;95.56
48402;BME280;34201;52.438;16.744;2022-08-03T03:42:09;100669.78;;;17.97;96.64
48402;BME280;34201;52.438;16.744;2022-08-03T03:44:35;100655.59;;;17.83;96.76
48402;BME280;34201;52.438;16.744;2022-08-03T03:47:00;100680.34;;;17.95;96.98
48402;BME280;34201;52.438;16.744;2022-08-03T03:49:26;100670.78;;;17.94;97.63
48402;BME280;34201;52.438;16.744;2022-08-03T03:51:53;100668.59;;;17.85;97.45
48402;BME280;34201;52.438;16.744;2022-08-03T03:54:19;100691.63;;;17.95;97.59
48402;BME280;34201;52.438;16.744;2022-08-03T03:56:45;100678.91;;;17.88;97.48
48402;BME280;34201;52.438;16.744;2022-08-03T03:59:10;100674.53;;;17.88;97.60
48402;BME280;34201;52.438;16.744;2022-08-03T04:01:37;100687.31;;;17.94;97.45
48402;BME280;34201;52.438;16.744;2022-08-03T04:04:02;100692.47;;;17.96;97.68
48402;BME280;34201;52.438;16.744;2022-08-03T04:06:48;100689.38;;;18.05;96.97
48402;BME280;34201;52.438;16.744;2022-08-03T04:09:34;100689.13;;;18.10;96.76
48402;BME280;34201;52.438;16.744;2022-08-03T04:12:21;100689.81;;;18.13;96.97
48402;BME280;34201;52.438;16.744;2022-08-03T04:14:49;100695.44;;;18.06;98.58
48402;BME280;34201;52.438;16.744;2022-08-03T04:17:17;100716.38;;;18.06;99.47
48402;BME280;34201;52.438;16.744;2022-08-03T04:19:48;100720.44;;;18.11;99.08
48402;BME280;34201;52.438;16.744;2022-08-03T04:22:18;100718.59;;;18.13;98.85
48402;BME280;34201;52.438;16.744;2022-08-03T04:24:47;100719.34;;;18.16;98.98
48402;BME280;34201;52.438;16.744;2022-08-03T04:27:15;100712.56;;;18.29;98.14
48402;BME280;34201;52.438;16.744;2022-08-03T04:29:45;100704.53;;;18.32;97.86
48402;BME280;34201;52.438;16.744;2022-08-03T04:32:12;100701.94;;;18.32;97.93
48402;BME280;34201;52.438;16.744;2022-08-03T04:34:38;100714.69;;;18.38;98.13
48402;BME280;34201;52.438;16.744;2022-08-03T04:37:11;100707.50;;;18.42;98.12
48402;BME280;34201;52.438;16.744;2022-08-03T04:39:40;100706.41;;;18.46;98.20
48402;BME280;34201;52.438;16.744;2022-08-03T04:42:08;100710.56;;;18.50;98.17
48402;BME280;34201;52.438;16.744;2022-08-03T04:44:37;100698.00;;;18.57;97.83
48402;BME280;34201;52.438;16.744;2022-08-03T04:47:04;100702.78;;;18.64;97.80
48402;BME280;34201;52.438;16.744;2022-08-03T04:49:30;100688.88;;;18.64;97.55
48402;BME280;34201;52.438;16.744;2022-08-03T04:51:56;100711.09;;;18.73;98.53
48402;BME280;34201;52.438;16.744;2022-08-03T04:54:21;100682.50;;;18.84;96.55
48402;BME280;34201;52.438;16.744;2022-08-03T04:56:46;100649.09;;;18.89;95.24
48402;BME280;34201;52.438;16.744;2022-08-03T04:59:12;100645.59;;;19.05;94.42
48402;BME280;34201;52.438;16.744;2022-08-03T05:01:39;100635.78;;;19.08;93.53
48402;BME280;34201;52.438;16.744;2022-08-03T05:04:05;100623.94;;;19.17;92.25
48402;BME280;34201;52.438;16.744;2022-08-03T05:06:30;100605.56;;;19.17;90.95
48402;BME280;34201;52.438;16.744;2022-08-03T05:08:55;100615.25;;;19.31;90.06
48402;BME280;34201;52.438;16.744;2022-08-03T05:11:21;100606.69;;;19.13;90.95
48402;BME280;34201;52.438;16.744;2022-08-03T05:13:46;100628.16;;;19.20;91.02
48402;BME280;34201;52.438;16.744;2022-08-03T05:16:13;100632.28;;;19.24;90.78
48402;BME280;34201;52.438;16.744;2022-08-03T05:18:42;100634.63;;;19.28;90.78
48402;BME280;34201;52.438;16.744;2022-08-03T05:21:08;100621.94;;;19.21;89.98
48402;BME280;34201;52.438;16.744;2022-08-03T05:23:34;100630.22;;;19.29;90.56
48402;BME280;34201;52.438;16.744;2022-08-03T05:25:59;100635.13;;;19.35;90.98
48402;BME280;34201;52.438;16.744;2022-08-03T05:28:25;100638.97;;;19.44;90.41
48402;BME280;34201;52.438;16.744;2022-08-03T05:30:50;100636.16;;;19.61;89.74
48402;BME280;34201;52.438;16.744;2022-08-03T05:33:15;100637.22;;;19.73;89.58
48402;BME280;34201;52.438;16.744;2022-08-03T05:35:41;100618.50;;;19.79;89.15
48402;BME280;34201;52.438;16.744;2022-08-03T05:38:06;100617.69;;;20.08;88.05
48402;BME280;34201;52.438;16.744;2022-08-03T05:40:32;100575.34;;;20.27;84.99
48402;BME280;34201;52.438;16.744;2022-08-03T05:42:57;100577.75;;;20.44;84.08
48402;BME280;34201;52.438;16.744;2022-08-03T05:45:24;100565.22;;;20.62;83.12
48402;BME280;34201;52.438;16.744;2022-08-03T05:47:49;100550.84;;;20.68;82.22
48402;BME280;34201;52.438;16.744;2022-08-03T05:50:16;100541.53;;;20.77;81.89
48402;BME280;34201;52.438;16.744;2022-08-03T05:52:43;100543.06;;;20.66;82.15
48402;BME280;34201;52.438;16.744;2022-08-03T05:55:09;100563.72;;;20.85;82.13
48402;BME280;34201;52.438;16.744;2022-08-03T05:57:35;100563.00;;;21.09;82.25
48402;BME280;34201;52.438;16.744;2022-08-03T06:00:08;100546.91;;;21.14;82.02
48402;BME280;34201;52.438;16.744;2022-08-03T06:02:34;100571.44;;;21.40;82.08
48402;BME280;34201;52.438;16.744;2022-08-03T06:05:00;100540.81;;;21.39;80.54
48402;BME280;34201;52.438;16.744;2022-08-03T06:07:25;100508.84;;;21.45;79.03
48402;BME280;34201;52.438;16.744;2022-08-03T06:09:51;100518.34;;;21.61;78.92
48402;BME280;34201;52.438;16.744;2022-08-03T06:12:16;100519.47;;;21.69;79.09
48402;BME280;34201;52.438;16.744;2022-08-03T06:14:42;100513.78;;;21.63;78.99
48402;BME280;34201;52.438;16.744;2022-08-03T06:17:08;100494.97;;;21.69;78.01
48402;BME280;34201;52.438;16.744;2022-08-03T06:19:33;100519.53;;;21.81;79.04
48402;BME280;34201;52.438;16.744;2022-08-03T06:21:59;100502.22;;;22.02;77.66
48402;BME280;34201;52.438;16.744;2022-08-03T06:24:24;100524.94;;;22.16;78.70
48402;BME280;34201;52.438;16.744;2022-08-03T06:26:49;100495.22;;;22.14;77.79
48402;BME280;34201;52.438;16.744;2022-08-03T06:29:15;100476.22;;;21.98;77.49
48402;BME280;34201;52.438;16.744;2022-08-03T06:31:40;100484.28;;;22.08;77.40
48402;BME280;34201;52.438;16.744;2022-08-03T06:34:05;100486.84;;;22.09;76.73
48402;BME280;34201;52.438;16.744;2022-08-03T06:36:31;100492.00;;;22.11;77.05
48402;BME280;34201;52.438;16.744;2022-08-03T06:38:59;100510.00;;;22.28;77.86
48402;BME280;34201;52.438;16.744;2022-08-03T06:41:26;100513.78;;;22.37;77.79
48402;BME280;34201;52.438;16.744;2022-08-03T06:43:51;100504.16;;;22.49;77.69
48402;BME280;34201;52.438;16.744;2022-08-03T06:46:17;100472.28;;;22.87;75.43
48402;BME280;34201;52.438;16.744;2022-08-03T06:48:42;100440.66;;;22.99;73.81
48402;BME280;34201;52.438;16.744;2022-08-03T06:51:08;100459.38;;;23.07;74.90
48402;BME280;34201;52.438;16.744;2022-08-03T06:53:33;100487.56;;;23.29;76.19
48402;BME280;34201;52.438;16.744;2022-08-03T06:55:59;100445.84;;;23.46;73.53
48402;BME280;34201;52.438;16.744;2022-08-03T06:58:24;100441.66;;;23.32;73.26
48402;BME280;34201;52.438;16.744;2022-08-03T07:00:50;100420.28;;;23.46;72.19
48402;BME280;34201;52.438;16.744;2022-08-03T07:03:15;100398.75;;;23.18;71.78
48402;BME280;34201;52.438;16.744;2022-08-03T07:05:41;100409.75;;;23.12;72.04
48402;BME280;34201;52.438;16.744;2022-08-03T07:08:07;100419.22;;;23.03;72.71
48402;BME280;34201;52.438;16.744;2022-08-03T07:10:32;100417.75;;;22.99;72.85
48402;BME280;34201;52.438;16.744;2022-08-03T07:12:58;100424.59;;;23.02;72.76
48402;BME280;34201;52.438;16.744;2022-08-03T07:15:24;100419.97;;;23.17;72.49
48402;BME280;34201;52.438;16.744;2022-08-03T07:17:49;100417.06;;;22.97;72.88
48402;BME280;34201;52.438;16.744;2022-08-03T07:20:15;100439.75;;;23.34;72.74
48402;BME280;34201;52.438;16.744;2022-08-03T07:22:42;100424.16;;;23.42;72.34
48402;BME280;34201;52.438;16.744;2022-08-03T07:25:08;100440.44;;;23.24;72.94
48402;BME280;34201;52.438;16.744;2022-08-03T07:27:34;100434.22;;;23.37;72.40
48402;BME280;34201;52.438;16.744;2022-08-03T07:29:59;100439.59;;;23.58;72.71
48402;BME280;34201;52.438;16.744;2022-08-03T07:32:26;100415.34;;;23.53;71.43
48402;BME280;34201;52.438;16.744;2022-08-03T07:34:52;100420.75;;;23.51;72.04
48402;BME280;34201;52.438;16.744;2022-08-03T07:37:18;100435.16;;;23.36;72.87
48402;BME280;34201;52.438;16.744;2022-08-03T07:39:43;100447.25;;;23.50;73.10
48402;BME280;34201;52.438;16.744;2022-08-03T07:42:09;100456.59;;;23.65;73.44
48402;BME280;34201;52.438;16.744;2022-08-03T07:44:34;100433.53;;;23.90;71.72
48402;BME280;34201;52.438;16.744;2022-08-03T07:46:59;100396.19;;;23.95;70.63
48402;BME280;34201;52.438;16.744;2022-08-03T07:49:25;100405.75;;;24.28;70.37
48402;BME280;34201;52.438;16.744;2022-08-03T07:51:50;100412.97;;;24.89;69.58
48402;BME280;34201;52.438;16.744;2022-08-03T07:54:37;100366.69;;;25.65;67.12
48402;BME280;34201;52.438;16.744;2022-08-03T07:57:02;100358.03;;;25.63;67.10
48402;BME280;34201;52.438;16.744;2022-08-03T07:59:27;100384.22;;;25.37;68.87
48402;BME280;34201;52.438;16.744;2022-08-03T08:01:53;100370.81;;;24.88;69.59
48402;BME280;34201;52.438;16.744;2022-08-03T08:04:18;100389.53;;;25.06;69.32
48402;BME280;34201;52.438;16.744;2022-08-03T08:06:44;100390.53;;;25.15;69.56
48402;BME280;34201;52.438;16.744;2022-08-03T08:09:09;100378.50;;;25.01;68.90
48402;BME280;34201;52.438;16.744;2022-08-03T08:11:35;100353.81;;;25.31;66.92
48402;BME280;34201;52.438;16.744;2022-08-03T08:14:01;100337.59;;;25.75;66.27
48402;BME280;34201;52.438;16.744;2022-08-03T08:16:26;100346.47;;;25.35;67.66
48402;BME280;34201;52.438;16.744;2022-08-03T08:18:52;100354.41;;;25.35;67.49
48402;BME280;34201;52.438;16.744;2022-08-03T08:21:17;100349.75;;;25.17;67.62
48402;BME280;34201;52.438;16.744;2022-08-03T08:23:43;100359.09;;;25.31;67.66
48402;BME280;34201;52.438;16.744;2022-08-03T08:26:08;100369.75;;;25.41;68.25
48402;BME280;34201;52.438;16.744;2022-08-03T08:28:34;100367.63;;;25.35;67.67
48402;BME280;34201;52.438;16.744;2022-08-03T08:31:00;100331.53;;;25.34;67.02
48402;BME280;34201;52.438;16.744;2022-08-03T08:33:25;100336.75;;;25.65;66.02
48402;BME280;34201;52.438;16.744;2022-08-03T08:35:51;100348.47;;;25.82;66.70
48402;BME280;34201;52.438;16.744;2022-08-03T08:38:17;100334.50;;;25.60;66.68
48402;BME280;34201;52.438;16.744;2022-08-03T08:40:42;100332.56;;;25.91;66.02
48402;BME280;34201;52.438;16.744;2022-08-03T08:43:08;100349.56;;;25.89;66.93
48402;BME280;34201;52.438;16.744;2022-08-03T08:45:33;100364.63;;;26.27;66.86
48402;BME280;34201;52.438;16.744;2022-08-03T08:48:01;100336.53;;;26.44;65.80
48402;BME280;34201;52.438;16.744;2022-08-03T08:50:27;100344.16;;;26.57;65.90
48402;BME280;34201;52.438;16.744;2022-08-03T08:52:53;100302.88;;;26.92;63.23
48402;BME280;34201;52.438;16.744;2022-08-03T08:55:20;100321.84;;;26.97;63.90
48402;BME280;34201;52.438;16.744;2022-08-03T08:57:58;100314.72;;;27.44;63.13
48402;BME280;34201;52.438;16.744;2022-08-03T09:00:25;100285.59;;;27.52;61.64
48402;BME280;34201;52.438;16.744;2022-08-03T09:02:50;100313.19;;;27.41;62.79
48402;BME280;34201;52.438;16.744;2022-08-03T09:05:17;100284.88;;;27.32;61.84
48402;BME280;34201;52.438;16.744;2022-08-03T09:07:44;100318.50;;;27.77;62.20
48402;BME280;34201;52.438;16.744;2022-08-03T09:10:12;100338.00;;;28.04;62.60
48402;BME280;34201;52.438;16.744;2022-08-03T09:12:41;100297.22;;;28.48;60.26
48402;BME280;34201;52.438;16.744;2022-08-03T09:17:49;100235.81;;;29.27;56.83
48402;BME280;34201;52.438;16.744;2022-08-03T09:20:15;100221.16;;;29.39;55.68
48402;BME280;34201;52.438;16.744;2022-08-03T09:22:54;100248.47;;;29.91;55.90
48402;BME280;34201;52.438;16.744;2022-08-03T09:25:27;100249.66;;;29.47;56.70
48402;BME280;34201;52.438;16.744;2022-08-03T09:27:53;100222.16;;;29.71;55.15
48402;BME280;34201;52.438;16.744;2022-08-03T09:30:18;100250.59;;;29.95;56.31
48402;BME280;34201;52.438;16.744;2022-08-03T09:32:44;100206.16;;;29.88;54.89
48402;BME280;34201;52.438;16.744;2022-08-03T09:35:13;100230.19;;;30.98;53.90
48402;BME280;34201;52.438;16.744;2022-08-03T09:37:39;100198.59;;;30.87;53.17
48402;BME280;34201;52.438;16.744;2022-08-03T09:40:05;100202.69;;;30.35;54.07
48402;BME280;34201;52.438;16.744;2022-08-03T09:42:31;100198.53;;;30.64;53.57
48402;BME280;34201;52.438;16.744;2022-08-03T09:45:00;100200.31;;;30.80;53.50
48402;BME280;34201;52.438;16.744;2022-08-03T09:47:30;100170.56;;;31.52;51.76
48402;BME280;34201;52.438;16.744;2022-08-03T09:50:06;100141.09;;;31.22;50.39
48402;BME280;34201;52.438;16.744;2022-08-03T09:52:37;100145.78;;;30.97;50.52
48402;BME280;34201;52.438;16.744;2022-08-03T09:55:10;100168.41;;;31.10;51.63
48402;BME280;34201;52.438;16.744;2022-08-03T09:57:36;100184.09;;;31.51;51.66
48402;BME280;34201;52.438;16.744;2022-08-03T10:00:11;100170.03;;;31.72;50.97
48402;BME280;34201;52.438;16.744;2022-08-03T10:02:38;100151.72;;;31.31;50.82
48402;BME280;34201;52.438;16.744;2022-08-03T10:05:04;100129.75;;;31.05;50.25
48402;BME280;34201;52.438;16.744;2022-08-03T10:07:41;100118.94;;;32.12;47.96
48402;BME280;34201;52.438;16.744;2022-08-03T10:10:07;100133.84;;;32.36;48.83
48402;BME280;34201;52.438;16.744;2022-08-03T10:12:35;100062.97;;;32.25;44.61
48402;BME280;34201;52.438;16.744;2022-08-03T10:15:01;100085.13;;;32.19;44.79
48402;BME280;34201;52.438;16.744;2022-08-03T10:17:27;100012.19;;;32.10;42.49
48402;BME280;34201;52.438;16.744;2022-08-03T10:19:52;100105.50;;;32.41;45.21
48402;BME280;34201;52.438;16.744;2022-08-03T10:22:21;100095.81;;;32.19;45.41
48402;BME280;34201;52.438;16.744;2022-08-03T10:25:06;100104.31;;;32.44;45.71
48402;BME280;34201;52.438;16.744;2022-08-03T10:27:35;100112.56;;;32.86;45.00
48402;BME280;34201;52.438;16.744;2022-08-03T10:30:03;100016.28;;;32.28;42.58
48402;BME280;34201;52.438;16.744;2022-08-03T10:32:33;100027.50;;;32.38;42.42
48402;BME280;34201;52.438;16.744;2022-08-03T10:35:05;100035.31;;;32.61;42.74
48402;BME280;34201;52.438;16.744;2022-08-03T10:37:32;100087.91;;;32.69;44.03
48402;BME280;34201;52.438;16.744;2022-08-03T10:39:59;100042.16;;;32.92;42.48
48402;BME280;34201;52.438;16.744;2022-08-03T10:42:25;100042.59;;;32.67;42.79
48402;BME280;34201;52.438;16.744;2022-08-03T10:45:17;100070.88;;;32.98;43.14
48402;BME280;34201;52.438;16.744;2022-08-03T10:47:44;100031.53;;;32.70;42.65
48402;BME280;34201;52.438;16.744;2022-08-03T10:50:10;100072.13;;;33.02;43.15
48402;BME280;34201;52.438;16.744;2022-08-03T10:52:55;100067.22;;;32.63;43.71
48402;BME280;34201;52.438;16.744;2022-08-03T10:55:39;100070.88;;;32.77;43.37
48402;BME280;34201;52.438;16.744;2022-08-03T10:58:50;100046.78;;;32.77;42.96
48402;BME280;34201;52.438;16.744;2022-08-03T11:01:17;100067.44;;;32.83;43.26
48402;BME280;34201;52.438;16.744;2022-08-03T11:06:22;100008.63;;;32.96;41.53
48402;BME280;34201;52.438;16.744;2022-08-03T11:09:12;100022.97;;;31.80;42.54
48402;BME280;34201;52.438;16.744;2022-08-03T11:11:39;100059.97;;;32.78;42.09
48402;BME280;34201;52.438;16.744;2022-08-03T11:14:06;100046.47;;;33.15;41.78
48402;BME280;34201;52.438;16.744;2022-08-03T11:16:39;99955.44;;;33.21;37.55
48402;BME280;34201;52.438;16.744;2022-08-03T11:19:11;100014.94;;;33.17;39.54
48402;BME280;34201;52.438;16.744;2022-08-03T11:22:03;100014.78;;;32.90;39.75
48402;BME280;34201;52.438;16.744;2022-08-03T11:35:13;100016.66;;;33.59;40.55
48402;BME280;34201;52.438;16.744;2022-08-03T11:38:02;100010.19;;;34.02;39.87
48402;BME280;34201;52.438;16.744;2022-08-03T11:45:56;100000.25;;;33.34;40.13
48402;BME280;34201;52.438;16.744;2022-08-03T11:48:22;100015.88;;;33.72;39.96
48402;BME280;34201;52.438;16.744;2022-08-03T11:50:48;99994.88;;;33.83;39.51
48402;BME280;34201;52.438;16.744;2022-08-03T11:53:15;99987.56;;;33.15;39.22
48402;BME280;34201;52.438;16.744;2022-08-03T11:55:43;99984.97;;;33.28;39.29
48402;BME280;34201;52.438;16.744;2022-08-03T11:58:18;99987.72;;;33.06;39.42
48402;BME280;34201;52.438;16.744;2022-08-03T12:00:44;99971.84;;;33.47;38.57
48402;BME280;34201;52.438;16.744;2022-08-03T12:03:12;99972.00;;;33.32;38.63
48402;BME280;34201;52.438;16.744;2022-08-03T12:08:06;99985.69;;;33.50;38.75
48402;BME280;34201;52.438;16.744;2022-08-03T12:10:32;99961.50;;;33.37;38.90
48402;BME280;34201;52.438;16.744;2022-08-03T12:12:59;100022.78;;;33.53;40.36
48402;BME280;34201;52.438;16.744;2022-08-03T12:15:26;99980.97;;;33.59;39.30
48402;BME280;34201;52.438;16.744;2022-08-03T12:17:52;99991.63;;;33.87;39.14
48402;BME280;34201;52.438;16.744;2022-08-03T12:20:27;99999.31;;;34.17;38.94
48402;BME280;34201;52.438;16.744;2022-08-03T12:22:53;99964.34;;;33.77;38.33
48402;BME280;34201;52.438;16.744;2022-08-03T12:25:24;99969.63;;;33.57;39.40
48402;BME280;34201;52.438;16.744;2022-08-03T12:27:51;99978.94;;;33.68;39.13
48402;BME280;34201;52.438;16.744;2022-08-03T12:30:17;99965.94;;;32.88;39.44
48402;BME280;34201;52.438;16.744;2022-08-03T12:32:43;99966.78;;;33.65;38.33
48402;BME280;34201;52.438;16.744;2022-08-03T12:35:09;99961.25;;;33.80;38.49
48402;BME280;34201;52.438;16.744;2022-08-03T12:37:35;99970.38;;;33.92;38.87
48402;BME280;34201;52.438;16.744;2022-08-03T12:40:01;99947.91;;;33.93;38.43
48402;BME280;34201;52.438;16.744;2022-08-03T12:42:34;99974.09;;;33.36;39.09
48402;BME280;34201;52.438;16.744;2022-08-03T12:44:59;99966.41;;;33.82;38.51
48402;BME280;34201;52.438;16.744;2022-08-03T12:47:24;99976.66;;;33.65;38.98
48402;BME280;34201;52.438;16.744;2022-08-03T12:49:51;99971.94;;;32.90;39.67
48402;BME280;34201;52.438;16.744;2022-08-03T12:52:20;99950.03;;;33.50;38.69
48402;BME280;34201;52.438;16.744;2022-08-03T12:54:56;99974.34;;;33.55;39.51
48402;BME280;34201;52.438;16.744;2022-08-03T12:57:22;99988.72;;;33.40;40.19
48402;BME280;34201;52.438;16.744;2022-08-03T12:59:47;99956.84;;;33.52;39.23
48402;BME280;34201;52.438;16.744;2022-08-03T13:02:16;99940.03;;;33.23;39.11
48402;BME280;34201;52.438;16.744;2022-08-03T13:04:42;99957.59;;;33.39;38.97
48402;BME280;34201;52.438;16.744;2022-08-03T13:07:10;99958.06;;;33.50;39.09
48402;BME280;34201;52.438;16.744;2022-08-03T13:10:02;99951.91;;;32.79;39.72
48402;BME280;34201;52.438;16.744;2022-08-03T13:12:27;99969.19;;;32.55;40.49
48402;BME280;34201;52.438;16.744;2022-08-03T13:14:56;100019.97;;;33.26;41.07
48402;BME280;34201;52.438;16.744;2022-08-03T13:17:23;99985.03;;;33.06;40.70